sensor_id;sensor_type;location;lat;lon;timestamp;pressure;altitude;pressure_sealevel;temperature;humidity
22830;BME280;11581;51.250;6.778;2023-03-03T00:00:33;101839.72;;;4.23;53.86
22830;BME280;11581;51.250;6.778;2023-03-03T00:03:04;101837.16;;;4.21;55.25
22830;BME280;11581;51.250;6.778;2023-03-03T00:05:31;101850.44;;;4.20;54.13
22830;BME280;11581;51.250;6.778;2023-03-03T00:08:03;101837.22;;;4.20;55.46
22830;BME280;11581;51.250;6.778;2023-03-03T00:10:30;101840.69;;;4.20;54.34
22830;BME280;11581;51.250;6.778;2023-03-03T00:12:57;101785.25;;;3.88;54.34
22830;BME280;11581;51.250;6.778;2023-03-03T00:15:25;101835.56;;;4.17;54.55
22830;BME280;11581;51.250;6.778;2023-03-03T00:17:53;101833.38;;;4.10;54.41
22830;BME280;11581;51.250;6.778;2023-03-03T00:20:39;101850.75;;;4.14;57.12
22830;BME280;11581;51.250;6.778;2023-03-03T00:23:19;101853.38;;;4.14;57.22
22830;BME280;11581;51.250;6.778;2023-03-03T00:25:49;101853.22;;;4.17;55.62
22830;BME280;11581;51.250;6.778;2023-03-03T00:28:25;101843.41;;;4.19;57.04
22830;BME280;11581;51.250;6.778;2023-03-03T00:30:54;101852.13;;;4.21;55.77
22830;BME280;11581;51.250;6.778;2023-03-03T00:33:31;101847.44;;;4.26;57.44
22830;BME280;11581;51.250;6.778;2023-03-03T00:36:20;101857.69;;;4.32;57.46
22830;BME280;11581;51.250;6.778;2023-03-03T00:38:49;101860.00;;;4.38;55.84
22830;BME280;11581;51.250;6.778;2023-03-03T00:41:19;101835.81;;;4.30;56.21
22830;BME280;11581;51.250;6.778;2023-03-03T00:43:49;101864.63;;;4.50;55.45
22830;BME280;11581;51.250;6.778;2023-03-03T00:46:18;101864.31;;;4.56;55.62
22830;BME280;11581;51.250;6.778;2023-03-03T00:48:47;101862.09;;;4.64;55.58
22830;BME280;11581;51.250;6.778;2023-03-03T00:51:26;101864.41;;;4.70;57.33
22830;BME280;11581;51.250;6.778;2023-03-03T00:54:03;101846.41;;;4.61;55.67
22830;BME280;11581;51.250;6.778;2023-03-03T00:56:30;101846.16;;;4.65;54.72
22830;BME280;11581;51.250;6.778;2023-03-03T00:58:57;101830.56;;;4.61;54.81
22830;BME280;11581;51.250;6.778;2023-03-03T01:01:26;101849.16;;;4.75;54.90
22830;BME280;11581;51.250;6.778;2023-03-03T01:03:53;101845.75;;;4.73;55.04
22830;BME280;11581;51.250;6.778;2023-03-03T01:06:20;101862.38;;;4.91;55.06
22830;BME280;11581;51.250;6.778;2023-03-03T01:08:47;101872.72;;;4.95;54.80
22830;BME280;11581;51.250;6.778;2023-03-03T01:11:19;101857.88;;;4.93;56.14
22830;BME280;11581;51.250;6.778;2023-03-03T01:13:48;101872.19;;;5.04;54.98
22830;BME280;11581;51.250;6.778;2023-03-03T01:16:16;101866.75;;;5.07;54.73
22830;BME280;11581;51.250;6.778;2023-03-03T01:18:43;101871.88;;;5.10;54.62
22830;BME280;11581;51.250;6.778;2023-03-03T01:21:11;101788.28;;;4.61;54.77
22830;BME280;11581;51.250;6.778;2023-03-03T01:23:38;101869.78;;;5.15;54.45
22830;BME280;11581;51.250;6.778;2023-03-03T01:26:06;101817.69;;;4.86;54.79
22830;BME280;11581;51.250;6.778;2023-03-03T01:28:34;101869.63;;;5.18;55.05
22830;BME280;11581;51.250;6.778;2023-03-03T01:31:02;101876.53;;;5.21;54.55
22830;BME280;11581;51.250;6.778;2023-03-03T01:33:29;101875.94;;;5.16;54.44
22830;BME280;11581;51.250;6.778;2023-03-03T01:35:57;101876.44;;;5.22;54.52
22830;BME280;11581;51.250;6.778;2023-03-03T01:38:24;101879.09;;;5.22;54.12
22830;BME280;11581;51.250;6.778;2023-03-03T01:40:52;101880.03;;;5.21;54.42
22830;BME280;11581;51.250;6.778;2023-03-03T01:43:20;101854.84;;;4.99;53.93
22830;BME280;11581;51.250;6.778;2023-03-03T01:46:27;101882.94;;;5.17;56.27
22830;BME280;11581;51.250;6.778;2023-03-03T01:48:56;101887.38;;;5.16;54.56
22830;BME280;11581;51.250;6.778;2023-03-03T01:51:30;101885.59;;;5.17;54.94
22830;BME280;11581;51.250;6.778;2023-03-03T01:54:00;101806.25;;;4.70;54.82
22830;BME280;11581;51.250;6.778;2023-03-03T01:56:28;101841.75;;;4.97;54.44
22830;BME280;11581;51.250;6.778;2023-03-03T01:58:59;101878.44;;;5.19;55.64
22830;BME280;11581;51.250;6.778;2023-03-03T02:01:30;101806.34;;;4.84;54.82
22830;BME280;11581;51.250;6.778;2023-03-03T02:03:58;101869.44;;;5.21;54.69
22830;BME280;11581;51.250;6.778;2023-03-03T02:06:30;101897.44;;;5.25;55.46
22830;BME280;11581;51.250;6.778;2023-03-03T02:09:03;101878.00;;;5.26;55.13
22830;BME280;11581;51.250;6.778;2023-03-03T02:11:33;101873.38;;;5.30;55.33
22830;BME280;11581;51.250;6.778;2023-03-03T02:14:02;101874.06;;;5.33;54.45
22830;BME280;11581;51.250;6.778;2023-03-03T02:16:30;101872.16;;;5.35;54.67
22830;BME280;11581;51.250;6.778;2023-03-03T02:18:58;101879.19;;;5.36;54.22
22830;BME280;11581;51.250;6.778;2023-03-03T02:21:25;101876.53;;;5.36;54.02
22830;BME280;11581;51.250;6.778;2023-03-03T02:23:59;101880.88;;;5.37;55.45
22830;BME280;11581;51.250;6.778;2023-03-03T02:26:33;101885.22;;;5.38;54.81
22830;BME280;11581;51.250;6.778;2023-03-03T02:29:05;101884.38;;;5.38;54.12
22830;BME280;11581;51.250;6.778;2023-03-03T02:31:32;101875.59;;;5.37;54.08
22830;BME280;11581;51.250;6.778;2023-03-03T02:33:59;101884.38;;;5.38;54.03
22830;BME280;11581;51.250;6.778;2023-03-03T02:36:28;101884.47;;;5.36;54.53
22830;BME280;11581;51.250;6.778;2023-03-03T02:39:02;101852.72;;;5.21;55.21
22830;BME280;11581;51.250;6.778;2023-03-03T02:41:35;101880.00;;;5.37;55.23
22830;BME280;11581;51.250;6.778;2023-03-03T02:44:07;101884.47;;;5.36;54.41
22830;BME280;11581;51.250;6.778;2023-03-03T02:46:36;101884.47;;;5.36;54.20
22830;BME280;11581;51.250;6.778;2023-03-03T02:49:05;101862.31;;;5.23;54.33
22830;BME280;11581;51.250;6.778;2023-03-03T02:51:33;101874.81;;;5.35;54.23
22830;BME280;11581;51.250;6.778;2023-03-03T02:54:02;101880.19;;;5.34;54.50
22830;BME280;11581;51.250;6.778;2023-03-03T02:56:31;101862.47;;;5.20;54.19
22830;BME280;11581;51.250;6.778;2023-03-03T02:58:59;101826.97;;;4.93;55.05
22830;BME280;11581;51.250;6.778;2023-03-03T03:01:29;101894.19;;;5.36;54.53
22830;BME280;11581;51.250;6.778;2023-03-03T03:04:04;101903.91;;;5.35;55.05
22830;BME280;11581;51.250;6.778;2023-03-03T03:06:35;101906.47;;;5.37;54.78
22830;BME280;11581;51.250;6.778;2023-03-03T03:09:02;101908.94;;;5.40;54.59
22830;BME280;11581;51.250;6.778;2023-03-03T03:11:29;101908.84;;;5.41;54.81
22830;BME280;11581;51.250;6.778;2023-03-03T03:13:56;101904.34;;;5.43;54.60
22830;BME280;11581;51.250;6.778;2023-03-03T03:16:25;101898.88;;;5.46;55.13
22830;BME280;11581;51.250;6.778;2023-03-03T03:18:54;101909.28;;;5.49;54.41
22830;BME280;11581;51.250;6.778;2023-03-03T03:21:22;101867.03;;;5.32;54.64
22830;BME280;11581;51.250;6.778;2023-03-03T03:23:49;101907.38;;;5.51;54.50
22830;BME280;11581;51.250;6.778;2023-03-03T03:26:16;101839.44;;;5.07;54.39
22830;BME280;11581;51.250;6.778;2023-03-03T03:28:47;101903.03;;;5.50;54.73
22830;BME280;11581;51.250;6.778;2023-03-03T03:31:15;101880.00;;;5.37;54.54
22830;BME280;11581;51.250;6.778;2023-03-03T03:33:43;101907.47;;;5.50;55.04
22830;BME280;11581;51.250;6.778;2023-03-03T03:36:11;101907.38;;;5.51;54.66
22830;BME280;11581;51.250;6.778;2023-03-03T03:38:38;101917.06;;;5.52;54.63
22830;BME280;11581;51.250;6.778;2023-03-03T03:41:06;101922.19;;;5.55;54.63
22830;BME280;11581;51.250;6.778;2023-03-03T03:43:33;101922.19;;;5.55;54.60
22830;BME280;11581;51.250;6.778;2023-03-03T03:46:01;101876.28;;;5.41;54.50
22830;BME280;11581;51.250;6.778;2023-03-03T03:48:28;101906.28;;;5.55;54.30
22830;BME280;11581;51.250;6.778;2023-03-03T03:50:59;101831.25;;;5.11;55.08
22830;BME280;11581;51.250;6.778;2023-03-03T03:53:28;101911.38;;;5.58;54.51
22830;BME280;11581;51.250;6.778;2023-03-03T03:55:56;101775.50;;;4.69;54.54
22830;BME280;11581;51.250;6.778;2023-03-03T03:58:24;101915.84;;;5.58;54.69
22830;BME280;11581;51.250;6.778;2023-03-03T04:01:01;101905.25;;;5.58;55.14
22830;BME280;11581;51.250;6.778;2023-03-03T04:03:28;101915.84;;;5.58;54.31
22830;BME280;11581;51.250;6.778;2023-03-03T04:05:55;101901.00;;;5.55;54.40
22830;BME280;11581;51.250;6.778;2023-03-03T04:08:23;101903.66;;;5.55;54.67
22830;BME280;11581;51.250;6.778;2023-03-03T04:10:52;101914.22;;;5.55;54.37
22830;BME280;11581;51.250;6.778;2023-03-03T04:13:19;101917.81;;;5.54;54.66
22830;BME280;11581;51.250;6.778;2023-03-03T04:15:46;101809.25;;;4.95;54.39
22830;BME280;11581;51.250;6.778;2023-03-03T04:18:14;101908.06;;;5.55;54.78
22830;BME280;11581;51.250;6.778;2023-03-03T04:20:41;101919.63;;;5.54;54.70
22830;BME280;11581;51.250;6.778;2023-03-03T04:23:08;101923.09;;;5.54;54.50
22830;BME280;11581;51.250;6.778;2023-03-03T04:25:37;101908.69;;;5.44;55.06
22830;BME280;11581;51.250;6.778;2023-03-03T04:28:11;101924.22;;;5.50;54.79
22830;BME280;11581;51.250;6.778;2023-03-03T04:30:38;101924.22;;;5.50;54.71
22830;BME280;11581;51.250;6.778;2023-03-03T04:33:05;101922.53;;;5.49;54.47
22830;BME280;11581;51.250;6.778;2023-03-03T04:35:33;101916.03;;;5.39;54.42
22830;BME280;11581;51.250;6.778;2023-03-03T04:38:01;101923.59;;;5.45;54.49
22830;BME280;11581;51.250;6.778;2023-03-03T04:40:29;101924.56;;;5.44;54.57
22830;BME280;11581;51.250;6.778;2023-03-03T04:42:59;101922.00;;;5.43;55.11
22830;BME280;11581;51.250;6.778;2023-03-03T04:45:26;101923.91;;;5.41;54.83
22830;BME280;11581;51.250;6.778;2023-03-03T04:47:53;101923.03;;;5.40;54.84
22830;BME280;11581;51.250;6.778;2023-03-03T04:50:22;101932.66;;;5.41;54.97
22830;BME280;11581;51.250;6.778;2023-03-03T04:52:49;101923.91;;;5.41;54.93
22830;BME280;11581;51.250;6.778;2023-03-03T04:55:16;101932.66;;;5.41;54.99
22830;BME280;11581;51.250;6.778;2023-03-03T04:57:45;101936.25;;;5.40;54.70
22830;BME280;11581;51.250;6.778;2023-03-03T05:00:15;101905.38;;;5.25;55.36
22830;BME280;11581;51.250;6.778;2023-03-03T05:02:42;101932.84;;;5.38;54.61
22830;BME280;11581;51.250;6.778;2023-03-03T05:05:09;101898.31;;;5.10;54.52
22830;BME280;11581;51.250;6.778;2023-03-03T05:07:38;101854.94;;;4.82;54.74
22830;BME280;11581;51.250;6.778;2023-03-03T05:10:05;101937.72;;;5.30;54.69
22830;BME280;11581;51.250;6.778;2023-03-03T05:12:33;101931.81;;;5.25;54.31
22830;BME280;11581;51.250;6.778;2023-03-03T05:14:59;101936.53;;;5.20;54.55
22830;BME280;11581;51.250;6.778;2023-03-03T05:17:28;101939.34;;;5.17;55.19
22830;BME280;11581;51.250;6.778;2023-03-03T05:19:56;101906.63;;;4.87;54.80
22830;BME280;11581;51.250;6.778;2023-03-03T05:22:23;101943.19;;;5.12;54.99
22830;BME280;11581;51.250;6.778;2023-03-03T05:24:51;101908.44;;;4.87;55.25
22830;BME280;11581;51.250;6.778;2023-03-03T05:27:18;101944.97;;;5.11;55.22
22830;BME280;11581;51.250;6.778;2023-03-03T05:29:45;101927.72;;;5.04;55.23
22830;BME280;11581;51.250;6.778;2023-03-03T05:32:12;101939.75;;;5.10;55.45
22830;BME280;11581;51.250;6.778;2023-03-03T05:34:40;101944.19;;;5.09;55.85
22830;BME280;11581;51.250;6.778;2023-03-03T05:37:07;101860.72;;;4.57;55.62
22830;BME280;11581;51.250;6.778;2023-03-03T05:39:33;101806.06;;;4.26;55.37
22830;BME280;11581;51.250;6.778;2023-03-03T05:42:01;101860.88;;;4.54;55.39
22830;BME280;11581;51.250;6.778;2023-03-03T05:44:27;101947.06;;;5.05;55.29
22830;BME280;11581;51.250;6.778;2023-03-03T05:46:54;101925.59;;;4.95;55.56
22830;BME280;11581;51.250;6.778;2023-03-03T05:49:23;101948.81;;;5.06;55.37
22830;BME280;11581;51.250;6.778;2023-03-03T05:51:51;101878.91;;;4.63;55.74
22830;BME280;11581;51.250;6.778;2023-03-03T05:54:18;101946.16;;;5.06;55.44
22830;BME280;11581;51.250;6.778;2023-03-03T05:56:45;101945.22;;;5.07;55.48
22830;BME280;11581;51.250;6.778;2023-03-03T05:59:12;101934.09;;;5.00;55.62
22830;BME280;11581;51.250;6.778;2023-03-03T06:01:38;101940.78;;;5.07;55.61
22830;BME280;11581;51.250;6.778;2023-03-03T06:04:05;101916.88;;;4.93;55.72
22830;BME280;11581;51.250;6.778;2023-03-03T06:06:32;101853.03;;;4.52;55.66
22830;BME280;11581;51.250;6.778;2023-03-03T06:09:01;101943.69;;;5.03;55.88
22830;BME280;11581;51.250;6.778;2023-03-03T06:11:28;101960.75;;;5.13;55.64
22830;BME280;11581;51.250;6.778;2023-03-03T06:13:54;101909.72;;;4.80;55.36
22830;BME280;11581;51.250;6.778;2023-03-03T06:16:21;101966.91;;;5.13;55.44
22830;BME280;11581;51.250;6.778;2023-03-03T06:18:48;101976.63;;;5.13;55.30
22830;BME280;11581;51.250;6.778;2023-03-03T06:21:15;101970.78;;;5.06;55.17
22830;BME280;11581;51.250;6.778;2023-03-03T06:23:43;101984.56;;;5.13;55.48
22830;BME280;11581;51.250;6.778;2023-03-03T06:26:12;101989.06;;;5.11;56.17
22830;BME280;11581;51.250;6.778;2023-03-03T06:28:39;101976.69;;;5.11;55.99
22830;BME280;11581;51.250;6.778;2023-03-03T06:31:09;101649.34;;;3.14;56.33
22830;BME280;11581;51.250;6.778;2023-03-03T06:33:36;101993.06;;;5.18;56.00
22830;BME280;11581;51.250;6.778;2023-03-03T06:36:03;101995.56;;;5.21;56.05
22830;BME280;11581;51.250;6.778;2023-03-03T06:38:30;101995.31;;;5.25;56.35
22830;BME280;11581;51.250;6.778;2023-03-03T06:40:57;101997.78;;;5.28;56.13
22830;BME280;11581;51.250;6.778;2023-03-03T06:43:27;102007.25;;;5.32;56.63
22830;BME280;11581;51.250;6.778;2023-03-03T06:45:54;101942.31;;;4.96;56.43
22830;BME280;11581;51.250;6.778;2023-03-03T06:48:21;101953.41;;;5.02;56.11
22830;BME280;11581;51.250;6.778;2023-03-03T06:50:48;102017.16;;;5.44;55.75
22830;BME280;11581;51.250;6.778;2023-03-03T06:53:16;101955.72;;;5.08;55.78
22830;BME280;11581;51.250;6.778;2023-03-03T06:55:44;101431.50;;;1.98;56.20
22830;BME280;11581;51.250;6.778;2023-03-03T06:58:13;102022.81;;;5.54;56.20
22830;BME280;11581;51.250;6.778;2023-03-03T07:00:44;101942.00;;;5.17;56.57
22830;BME280;11581;51.250;6.778;2023-03-03T07:03:14;102020.50;;;5.63;56.39
22830;BME280;11581;51.250;6.778;2023-03-03T07:05:41;101969.63;;;5.43;55.40
22830;BME280;11581;51.250;6.778;2023-03-03T07:08:13;102016.66;;;5.69;55.73
22830;BME280;11581;51.250;6.778;2023-03-03T07:10:40;102059.88;;;5.69;54.85
22830;BME280;11581;51.250;6.778;2023-03-03T07:13:16;102020.16;;;5.69;55.58
22830;BME280;11581;51.250;6.778;2023-03-03T07:15:45;102020.25;;;5.68;54.67
22830;BME280;11581;51.250;6.778;2023-03-03T07:18:24;101934.31;;;5.13;55.35
22830;BME280;11581;51.250;6.778;2023-03-03T07:20:54;102030.94;;;5.66;54.34
22830;BME280;11581;51.250;6.778;2023-03-03T07:23:24;102033.75;;;5.63;54.49
22830;BME280;11581;51.250;6.778;2023-03-03T07:25:51;102018.53;;;5.51;54.03
22830;BME280;11581;51.250;6.778;2023-03-03T07:28:22;102036.91;;;5.54;54.28
22830;BME280;11581;51.250;6.778;2023-03-03T07:30:51;102033.66;;;5.49;54.32
22830;BME280;11581;51.250;6.778;2023-03-03T07:33:24;102040.03;;;5.45;55.05
22830;BME280;11581;51.250;6.778;2023-03-03T07:35:52;102008.28;;;5.14;54.30
22830;BME280;11581;51.250;6.778;2023-03-03T07:38:24;102041.31;;;5.38;55.00
22830;BME280;11581;51.250;6.778;2023-03-03T07:40:55;102015.88;;;5.20;54.68
22830;BME280;11581;51.250;6.778;2023-03-03T07:43:30;102046.59;;;5.38;55.79
22830;BME280;11581;51.250;6.778;2023-03-03T07:46:14;102039.00;;;5.32;55.71
22830;BME280;11581;51.250;6.778;2023-03-03T07:48:48;102056.88;;;5.44;54.46
22830;BME280;11581;51.250;6.778;2023-03-03T07:51:21;102055.00;;;5.46;55.24
22830;BME280;11581;51.250;6.778;2023-03-03T07:53:53;102056.69;;;5.47;54.45
22830;BME280;11581;51.250;6.778;2023-03-03T07:56:27;102059.19;;;5.50;54.85
22830;BME280;11581;51.250;6.778;2023-03-03T07:58:55;102049.72;;;5.46;54.17
22830;BME280;11581;51.250;6.778;2023-03-03T08:01:36;102067.75;;;5.55;55.34
22830;BME280;11581;51.250;6.778;2023-03-03T08:04:22;102075.47;;;5.58;55.50
22830;BME280;11581;51.250;6.778;2023-03-03T08:06:53;102082.34;;;5.62;54.44
22830;BME280;11581;51.250;6.778;2023-03-03T08:09:35;102079.44;;;5.67;55.95
22830;BME280;11581;51.250;6.778;2023-03-03T08:12:18;102085.22;;;5.73;55.42
22830;BME280;11581;51.250;6.778;2023-03-03T08:14:45;102060.13;;;5.65;54.23
22830;BME280;11581;51.250;6.778;2023-03-03T08:17:19;102092.53;;;5.85;54.75
22830;BME280;11581;51.250;6.778;2023-03-03T08:19:46;102074.16;;;5.82;54.15
22830;BME280;11581;51.250;6.778;2023-03-03T08:22:16;102023.81;;;5.51;54.15
22830;BME280;11581;51.250;6.778;2023-03-03T08:24:43;102076.66;;;5.85;53.70
22830;BME280;11581;51.250;6.778;2023-03-03T08:27:10;102096.03;;;6.01;53.42
22830;BME280;11581;51.250;6.778;2023-03-03T08:29:37;102095.09;;;6.02;53.06
22830;BME280;11581;51.250;6.778;2023-03-03T08:32:05;102102.16;;;6.02;53.20
22830;BME280;11581;51.250;6.778;2023-03-03T08:34:35;102106.63;;;6.01;53.42
22830;BME280;11581;51.250;6.778;2023-03-03T08:37:01;102068.22;;;5.77;53.20
22830;BME280;11581;51.250;6.778;2023-03-03T08:39:28;102099.63;;;6.00;53.21
22830;BME280;11581;51.250;6.778;2023-03-03T08:41:57;102110.22;;;6.00;53.03
22830;BME280;11581;51.250;6.778;2023-03-03T08:44:24;102104.81;;;6.02;53.22
22830;BME280;11581;51.250;6.778;2023-03-03T08:46:51;102106.47;;;6.04;53.44
22830;BME280;11581;51.250;6.778;2023-03-03T08:49:18;102081.63;;;5.74;53.14
22830;BME280;11581;51.250;6.778;2023-03-03T08:51:46;102116.88;;;6.07;53.13
22830;BME280;11581;51.250;6.778;2023-03-03T08:54:13;102052.59;;;5.73;52.63
22830;BME280;11581;51.250;6.778;2023-03-03T08:56:40;102113.13;;;6.11;52.82
22830;BME280;11581;51.250;6.778;2023-03-03T08:59:06;102121.94;;;6.12;52.88
22830;BME280;11581;51.250;6.778;2023-03-03T09:01:33;102120.13;;;6.12;52.76
22830;BME280;11581;51.250;6.778;2023-03-03T09:04:00;102120.13;;;6.12;52.96
22830;BME280;11581;51.250;6.778;2023-03-03T09:06:27;102122.59;;;6.15;53.04
22830;BME280;11581;51.250;6.778;2023-03-03T09:08:55;102124.28;;;6.16;52.86
22830;BME280;11581;51.250;6.778;2023-03-03T09:11:28;102118.91;;;6.18;53.15
22830;BME280;11581;51.250;6.778;2023-03-03T09:14:01;102126.78;;;6.19;52.77
22830;BME280;11581;51.250;6.778;2023-03-03T09:16:33;102114.81;;;6.12;53.38
22830;BME280;11581;51.250;6.778;2023-03-03T09:19:14;102139.75;;;6.24;53.37
22830;BME280;11581;51.250;6.778;2023-03-03T09:21:44;102116.25;;;6.18;52.72
22830;BME280;11581;51.250;6.778;2023-03-03T09:24:22;102131.56;;;6.28;53.08
22830;BME280;11581;51.250;6.778;2023-03-03T09:26:51;102136.69;;;6.31;52.53
22830;BME280;11581;51.250;6.778;2023-03-03T09:29:24;102157.72;;;6.34;52.78
22830;BME280;11581;51.250;6.778;2023-03-03T09:31:53;102113.34;;;6.22;52.45
22830;BME280;11581;51.250;6.778;2023-03-03T09:34:23;102140.69;;;6.38;52.37
22830;BME280;11581;51.250;6.778;2023-03-03T09:36:53;102133.47;;;6.26;52.06
22830;BME280;11581;51.250;6.778;2023-03-03T09:39:24;102128.16;;;6.26;52.32
22830;BME280;11581;51.250;6.778;2023-03-03T09:42:04;102148.63;;;6.38;52.82
22830;BME280;11581;51.250;6.778;2023-03-03T09:44:52;102151.13;;;6.41;52.14
22830;BME280;11581;51.250;6.778;2023-03-03T09:47:41;102150.94;;;6.44;52.22
22830;BME280;11581;51.250;6.778;2023-03-03T09:50:20;102163.38;;;6.44;52.57
22830;BME280;11581;51.250;6.778;2023-03-03T09:53:01;102154.38;;;6.46;52.51
22830;BME280;11581;51.250;6.778;2023-03-03T09:55:43;102158.63;;;6.49;52.48
22830;BME280;11581;51.250;6.778;2023-03-03T09:58:40;102164.53;;;6.54;52.65
22830;BME280;11581;51.250;6.778;2023-03-03T10:01:29;102154.59;;;6.57;52.54
22830;BME280;11581;51.250;6.778;2023-03-03T10:04:15;102128.91;;;6.44;52.45
22830;BME280;11581;51.250;6.778;2023-03-03T10:06:48;102149.19;;;6.59;52.07
22830;BME280;11581;51.250;6.778;2023-03-03T10:09:39;102167.72;;;6.74;52.70
22830;BME280;11581;51.250;6.778;2023-03-03T10:12:18;102112.44;;;6.53;51.95
22830;BME280;11581;51.250;6.778;2023-03-03T10:15:14;102130.97;;;6.68;52.05
22830;BME280;11581;51.250;6.778;2023-03-03T10:17:48;102163.75;;;6.97;51.72
22830;BME280;11581;51.250;6.778;2023-03-03T10:20:31;102169.72;;;7.01;51.69
22830;BME280;11581;51.250;6.778;2023-03-03T10:23:11;102172.94;;;7.06;51.59
22830;BME280;11581;51.250;6.778;2023-03-03T10:25:52;102129.69;;;6.89;51.42
22830;BME280;11581;51.250;6.778;2023-03-03T10:31:29;102165.25;;;7.01;50.72
22830;BME280;11581;51.250;6.778;2023-03-03T10:34:04;102156.31;;;7.18;50.94
22830;BME280;11581;51.250;6.778;2023-03-03T10:36:44;102130.69;;;7.03;51.45
22830;BME280;11581;51.250;6.778;2023-03-03T10:39:29;102160.88;;;7.30;51.45
22830;BME280;11581;51.250;6.778;2023-03-03T10:42:13;102151.78;;;7.34;51.76
22830;BME280;11581;51.250;6.778;2023-03-03T10:45:00;102160.31;;;7.53;51.53
22830;BME280;11581;51.250;6.778;2023-03-03T10:47:54;102169.25;;;7.66;50.88
22830;BME280;11581;51.250;6.778;2023-03-03T10:50:29;102094.97;;;7.36;50.80
22830;BME280;11581;51.250;6.778;2023-03-03T10:53:11;102137.28;;;7.67;50.38
22830;BME280;11581;51.250;6.778;2023-03-03T10:55:47;102169.00;;;7.97;50.20
22830;BME280;11581;51.250;6.778;2023-03-03T10:58:38;102174.81;;;8.03;49.98
22830;BME280;11581;51.250;6.778;2023-03-03T11:01:18;102176.13;;;8.10;49.53
22830;BME280;11581;51.250;6.778;2023-03-03T11:04:17;102168.72;;;8.15;49.65
22830;BME280;11581;51.250;6.778;2023-03-03T11:06:52;102107.50;;;7.76;49.14
22830;BME280;11581;51.250;6.778;2023-03-03T11:09:32;102146.97;;;8.09;49.34
22830;BME280;11581;51.250;6.778;2023-03-03T11:12:08;102174.31;;;8.25;49.21
22830;BME280;11581;51.250;6.778;2023-03-03T11:14:44;102172.44;;;8.27;49.12
22830;BME280;11581;51.250;6.778;2023-03-03T11:17:19;102167.94;;;8.27;48.74
22830;BME280;11581;51.250;6.778;2023-03-03T11:19:58;102170.50;;;8.29;49.27
22830;BME280;11581;51.250;6.778;2023-03-03T11:22:41;102159.66;;;8.32;49.03
22830;BME280;11581;51.250;6.778;2023-03-03T11:25:22;102166.09;;;8.42;49.42
22830;BME280;11581;51.250;6.778;2023-03-03T11:28:18;102161.16;;;8.50;48.78
22830;BME280;11581;51.250;6.778;2023-03-03T11:30:59;102161.47;;;8.58;48.69
22830;BME280;11581;51.250;6.778;2023-03-03T11:33:34;102158.50;;;8.62;48.28
22830;BME280;11581;51.250;6.778;2023-03-03T11:36:10;102081.38;;;8.23;48.40
22830;BME280;11581;51.250;6.778;2023-03-03T11:38:47;102137.13;;;8.64;48.44
22830;BME280;11581;51.250;6.778;2023-03-03T11:41:25;102152.19;;;8.77;48.09
22830;BME280;11581;51.250;6.778;2023-03-03T11:44:01;102117.69;;;8.63;47.88
22830;BME280;11581;51.250;6.778;2023-03-03T11:46:33;102148.81;;;8.88;47.74
22830;BME280;11581;51.250;6.778;2023-03-03T11:49:05;102150.31;;;8.92;47.97
22830;BME280;11581;51.250;6.778;2023-03-03T11:51:54;102026.97;;;8.29;47.71
22830;BME280;11581;51.250;6.778;2023-03-03T11:54:26;102143.31;;;9.03;47.56
22830;BME280;11581;51.250;6.778;2023-03-03T11:56:58;102140.34;;;9.08;47.64
22830;BME280;11581;51.250;6.778;2023-03-03T12:00:04;102138.84;;;9.17;48.39
22830;BME280;11581;51.250;6.778;2023-03-03T12:05:49;102140.88;;;9.38;47.44
22830;BME280;11581;51.250;6.778;2023-03-03T12:08:31;102134.91;;;9.47;46.80
22830;BME280;11581;51.250;6.778;2023-03-03T12:11:05;102138.84;;;9.54;46.61
22830;BME280;11581;51.250;6.778;2023-03-03T12:13:41;102137.75;;;9.57;46.72
22830;BME280;11581;51.250;6.778;2023-03-03T12:16:15;102083.50;;;9.22;46.59
22830;BME280;11581;51.250;6.778;2023-03-03T12:19:00;102090.16;;;9.40;46.92
22830;BME280;11581;51.250;6.778;2023-03-03T12:21:45;102114.97;;;9.65;46.84
22830;BME280;11581;51.250;6.778;2023-03-03T12:24:26;102090.69;;;9.57;46.97
22830;BME280;11581;51.250;6.778;2023-03-03T12:27:05;102104.19;;;9.79;46.66
22830;BME280;11581;51.250;6.778;2023-03-03T12:29:41;102109.28;;;9.82;46.53
22830;BME280;11581;51.250;6.778;2023-03-03T12:32:21;102119.56;;;9.99;46.50
22830;BME280;11581;51.250;6.778;2023-03-03T12:34:57;102123.41;;;10.08;46.47
22830;BME280;11581;51.250;6.778;2023-03-03T12:37:45;102109.53;;;10.15;46.07
22830;BME280;11581;51.250;6.778;2023-03-03T12:40:19;102107.91;;;10.25;45.95
22830;BME280;11581;51.250;6.778;2023-03-03T12:43:12;102111.81;;;10.32;45.65
22830;BME280;11581;51.250;6.778;2023-03-03T12:45:51;102046.63;;;10.00;45.46
22830;BME280;11581;51.250;6.778;2023-03-03T12:48:24;102110.44;;;10.50;45.50
22830;BME280;11581;51.250;6.778;2023-03-03T12:51:01;102106.59;;;10.54;45.00
22830;BME280;11581;51.250;6.778;2023-03-03T12:53:42;102103.56;;;10.59;45.05
22830;BME280;11581;51.250;6.778;2023-03-03T12:56:16;102106.75;;;10.64;44.82
22830;BME280;11581;51.250;6.778;2023-03-03T12:58:52;102102.13;;;10.66;44.90
22830;BME280;11581;51.250;6.778;2023-03-03T13:01:35;102089.25;;;10.60;44.81
22830;BME280;11581;51.250;6.778;2023-03-03T13:04:07;102093.53;;;10.62;44.65
22830;BME280;11581;51.250;6.778;2023-03-03T13:06:44;102117.13;;;10.79;44.47
22830;BME280;11581;51.250;6.778;2023-03-03T13:09:30;102112.28;;;10.84;44.36
22830;BME280;11581;51.250;6.778;2023-03-03T13:12:19;102013.00;;;10.34;44.25
22830;BME280;11581;51.250;6.778;2023-03-03T13:14:51;102112.69;;;11.02;44.55
22830;BME280;11581;51.250;6.778;2023-03-03T13:17:26;102111.97;;;11.11;43.72
22830;BME280;11581;51.250;6.778;2023-03-03T13:19:56;102114.28;;;11.15;43.83
22830;BME280;11581;51.250;6.778;2023-03-03T13:22:32;102112.38;;;11.17;43.85
22830;BME280;11581;51.250;6.778;2023-03-03T13:25:06;102106.56;;;11.23;43.75
22830;BME280;11581;51.250;6.778;2023-03-03T13:27:39;102111.03;;;11.34;43.38
22830;BME280;11581;51.250;6.778;2023-03-03T13:30:15;102106.81;;;11.43;43.16
22830;BME280;11581;51.250;6.778;2023-03-03T13:32:48;102111.41;;;11.52;43.09